Time;durP1;ratioP1;P1;durP2;ratioP2;P2;SDS_P1;SDS_P2;PMS_P1;PMS_P2;Temp;Humidity;BMP_temperature;BMP_pressure;BME280_temperature;BME280_humidity;BME280_pressure;Samples;Min_cycle;Max_cycle;Signal;HPM_P1;HPM_P2
2023/04/29 00:01:02;;;;;;;48.83;22.27;;;;;;;8.86;82.83;101152.03;4970656;28;19922;-82
2023/04/29 00:03:33;;;;;;;50.50;23.05;;;;;;;8.87;83.01;101145.63;4968922;28;20043;-81
2023/04/29 00:05:59;;;;;;;48.40;23.45;;;;;;;8.84;82.97;101154.03;4968667;28;20038;-82
2023/04/29 00:08:24;;;;;;;50.85;23.83;;;;;;;8.82;83.73;101164.16;4969798;28;20498;-82
2023/04/29 00:10:49;;;;;;;51.78;23.20;;;;;;;8.84;84.01;101155.91;4972585;28;20055;-82
2023/04/29 00:13:15;;;;;;;52.30;25.02;;;;;;;8.81;84.17;101154.44;4969129;28;20027;-82
2023/04/29 00:15:40;;;;;;;51.00;23.27;;;;;;;8.79;84.62;101164.50;4936049;28;20171;-83
2023/04/29 00:18:06;;;;;;;48.60;21.73;;;;;;;8.77;84.14;101155.78;4971708;28;20498;-83
2023/04/29 00:20:31;;;;;;;;;;;;;;;8.75;83.93;101163.19;4972207;28;20102;-82
2023/04/29 00:22:57;;;;;;;52.17;23.35;;;;;;;8.70;84.84;101160.19;4969722;28;19926;-82
2023/04/29 00:25:22;;;;;;;;;;;;;;;8.72;84.96;101164.38;4970657;28;20106;-82
2023/04/29 00:27:47;;;;;;;48.73;22.30;;;;;;;8.60;85.62;101161.25;4969767;28;19922;-82
2023/04/29 00:30:13;;;;;;;;;;;;;;;8.63;85.51;101166.28;4971528;28;20290;-82
2023/04/29 00:32:38;;;;;;;46.30;21.47;;;;;;;8.58;85.30;101170.47;4969409;28;20350;-82
2023/04/29 00:35:04;;;;;;;47.53;21.35;;;;;;;8.56;85.61;101184.06;4970495;28;20023;-82
2023/04/29 00:37:30;;;;;;;48.65;22.42;;;;;;;8.59;86.07;101180.19;4968893;28;20417;-81
2023/04/29 00:47:40;;;;;;;57.08;24.45;;;;;;;8.48;86.31;101187.63;4945720;29;20086;-80
2023/04/29 00:50:06;;;;;;;54.15;24.15;;;;;;;8.54;86.64;101188.78;4942708;29;20448;-81
2023/04/29 00:52:32;;;;;;;55.33;24.17;;;;;;;8.51;86.93;101189.13;4954370;29;20035;-81
2023/04/29 00:54:58;;;;;;;56.53;24.42;;;;;;;8.47;86.81;101193.16;4954596;29;20082;-82
2023/04/29 00:57:24;;;;;;;55.05;25.05;;;;;;;8.46;87.01;101196.84;4936459;29;20114;-81
2023/04/29 00:59:55;;;;;;;46.38;21.08;;;;;;;8.48;87.65;101201.06;4937503;29;20559;-82
2023/04/29 01:02:20;;;;;;;49.08;23.40;;;;;;;8.45;87.55;101197.84;5283275;23;20055;-82
2023/04/29 01:04:45;;;;;;;60.47;24.35;;;;;;;8.44;87.52;101206.91;4938545;29;20386;-82
2023/04/29 01:07:11;;;;;;;;;;;;;;;8.42;87.45;101203.56;4956390;29;20023;-82
2023/04/29 01:09:45;;;;;;;53.77;23.87;;;;;;;8.34;87.67;101205.25;4955375;29;19919;-81
2023/04/29 01:12:18;;;;;;;56.25;24.27;;;;;;;8.34;88.38;101207.13;4955168;29;20078;-81
2023/04/29 01:14:46;;;;;;;52.85;22.98;;;;;;;8.39;88.23;101209.28;4937764;29;20023;-82
2023/04/29 01:17:17;;;;;;;56.47;24.80;;;;;;;8.32;88.20;101207.28;4937766;29;20051;-81
2023/04/29 01:19:54;;;;;;;54.70;23.75;;;;;;;8.35;87.90;101217.66;4938809;29;20130;-81
2023/04/29 01:22:20;;;;;;;62.45;25.70;;;;;;;8.31;88.06;101226.25;4953176;29;20036;-81
2023/04/29 01:24:47;;;;;;;55.92;24.65;;;;;;;8.32;87.97;101223.38;4952012;29;20042;-82
2023/04/29 01:27:30;;;;;;;58.80;25.90;;;;;;;8.32;87.94;101223.38;4955131;29;20027;-82
2023/04/29 01:30:09;;;;;;;65.15;26.83;;;;;;;8.32;88.13;101228.75;4954077;29;20040;-82
2023/04/29 01:32:38;;;;;;;63.72;27.45;;;;;;;8.28;88.91;101231.94;4920463;29;20039;-80
2023/04/29 01:35:31;;;;;;;68.85;27.92;;;;;;;8.27;88.42;101233.81;4936556;29;20066;-81
2023/04/29 01:38:06;;;;;;;60.65;26.70;;;;;;;8.31;87.88;101229.75;4953593;29;20039;-81
2023/04/29 01:40:42;;;;;;;61.15;27.10;;;;;;;8.28;87.88;101237.31;4935617;29;20055;-81
2023/04/29 01:43:10;;;;;;;56.78;25.38;;;;;;;8.30;88.16;101236.13;4936230;29;20035;-81
2023/04/29 01:45:36;;;;;;;63.05;27.52;;;;;;;8.31;88.12;101242.34;4951446;29;20043;-82
2023/04/29 01:48:03;;;;;;;62.15;27.58;;;;;;;8.28;88.45;101245.34;4953120;29;20102;-82
2023/04/29 01:50:29;;;;;;;58.13;26.27;;;;;;;8.33;88.56;101243.81;4935393;29;20050;-82
2023/04/29 01:52:54;;;;;;;57.30;27.45;;;;;;;8.37;87.89;101243.47;4950956;28;20028;-82
2023/04/29 01:55:20;;;;;;;;;;;;;;;8.44;87.57;101252.53;4954581;29;20031;-81
2023/04/29 01:57:45;;;;;;;52.60;24.80;;;;;;;8.40;86.98;101245.81;4953690;29;19918;-81
2023/04/29 02:00:11;;;;;;;55.30;26.13;;;;;;;8.41;87.12;101247.50;4951669;29;20020;-81
2023/04/29 02:02:36;;;;;;;;;;;;;;;8.43;86.85;101246.31;4952238;29;20975;-81
2023/04/29 02:05:02;;;;;;;50.27;24.00;;;;;;;8.41;87.16;101247.50;4952977;29;20289;-82
2023/04/29 02:07:27;;;;;;;;;;;;;;;8.39;87.06;101250.34;4953279;29;20290;-81
2023/04/29 02:09:52;;;;;;;48.63;23.00;;;;;;;8.41;87.08;101247.50;4953335;29;20267;-81
2023/04/29 02:12:17;;;;;;;49.47;24.48;;;;;;;8.45;86.75;101252.34;4953351;29;20347;-82
2023/04/29 02:14:43;;;;;;;;;;;;;;;8.39;87.04;101263.75;4951903;29;20039;-81
2023/04/29 02:17:08;;;;;;;57.20;24.97;;;;;;;8.39;86.75;101254.88;4954679;29;19918;-81
2023/04/29 02:19:34;;;;;;;46.42;24.42;;;;;;;8.38;87.80;101266.63;4954214;29;20388;-81
2023/04/29 02:21:59;;;;;;;;;;;;;;;8.37;87.23;101267.63;4955142;29;20099;-82
2023/04/29 02:24:25;;;;;;;57.35;26.63;;;;;;;8.38;87.01;101269.31;4950344;29;19918;-82
2023/04/29 02:26:50;;;;;;;57.25;27.45;;;;;;;8.35;87.20;101275.88;4953566;29;20385;-81
2023/04/29 02:29:16;;;;;;;;;;;;;;;8.33;86.87;101275.19;4954050;29;20038;-81
2023/04/29 02:31:44;;;;;;;48.10;23.48;;;;;;;8.39;87.02;101282.53;4954530;29;19925;-81
2023/04/29 02:34:10;;;;;;;55.05;26.08;;;;;;;8.38;86.89;101280.03;4952799;29;20066;-81
2023/04/29 02:36:35;;;;;;;53.67;26.30;;;;;;;8.39;86.40;101287.91;4951402;29;20043;-81
2023/04/29 02:39:01;;;;;;;50.22;25.27;;;;;;;8.39;86.36;101289.75;4953692;29;20406;-81
2023/04/29 02:41:26;;;;;;;;;;;;;;;8.38;86.36;101294.31;4953255;29;20039;-81
2023/04/29 02:43:51;;;;;;;45.30;24.58;;;;;;;8.40;85.95;101288.75;4953378;28;19986;-81
2023/04/29 02:46:17;;;;;;;47.28;24.17;;;;;;;8.40;86.30;101294.13;4951739;29;20023;-81
2023/04/29 02:48:43;;;;;;;50.53;24.92;;;;;;;8.41;85.92;101298.47;4952323;29;20031;-81
2023/04/29 02:51:08;;;;;;;;;;;;;;;8.37;86.21;101294.47;4952768;29;20030;-82
2023/04/29 02:53:33;;;;;;;42.47;22.97;;;;;;;8.37;85.64;101294.47;4951708;29;20315;-82
2023/04/29 02:55:59;;;;;;;;;;;;;;;8.33;85.98;101302.84;4952562;29;20295;-82
2023/04/29 02:58:24;;;;;;;48.50;25.53;;;;;;;8.28;86.34;101307.91;4950817;29;19930;-81
2023/04/29 03:00:49;;;;;;;;;;;;;;;8.28;86.29;101313.25;4953457;29;20103;-81
2023/04/29 03:03:15;;;;;;;42.37;22.67;;;;;;;8.29;85.72;101314.94;4953247;29;20286;-83
2023/04/29 03:05:40;;;;;;;49.92;24.98;;;;;;;8.25;86.28;101323.47;4952181;28;20339;-81
2023/04/29 03:08:06;;;;;;;;;;;;;;;8.26;85.97;101315.28;4954484;29;20038;-81
2023/04/29 03:10:31;;;;;;;43.40;22.35;;;;;;;8.27;86.11;101333.06;4951793;29;19985;-82
2023/04/29 03:12:56;;;;;;;;;;;;;;;8.21;86.56;101323.00;4953167;29;20035;-81
2023/04/29 03:15:22;;;;;;;48.23;23.03;;;;;;;8.25;86.10;101329.69;4952911;29;19925;-81
2023/04/29 03:17:48;;;;;;;43.60;24.58;;;;;;;8.27;85.49;101337.56;4953240;29;20031;-81
2023/04/29 03:20:13;;;;;;;;;;;;;;;8.23;85.62;101333.53;4952463;29;20541;-81
2023/04/29 03:22:38;;;;;;;47.70;24.13;;;;;;;8.25;86.20;101328.84;4951350;29;19923;-81
2023/04/29 03:25:04;;;;;;;46.08;23.95;;;;;;;8.25;85.85;101332.38;4953189;29;20027;-82
2023/04/29 03:27:30;;;;;;;40.13;21.35;;;;;;;8.25;85.29;101335.06;4953745;29;20570;-81
2023/04/29 03:29:55;;;;;;;41.65;22.15;;;;;;;8.27;85.26;101338.41;4953052;29;20023;-82
2023/04/29 03:32:21;;;;;;;37.30;21.73;;;;;;;8.31;84.73;101334.34;4950856;29;20023;-82
2023/04/29 03:34:48;;;;;;;39.55;21.58;;;;;;;8.29;84.59;101336.41;4952478;29;20027;-82
2023/04/29 03:37:15;;;;;;;40.97;22.50;;;;;;;8.24;84.46;101333.38;4952875;29;20403;-81
2023/04/29 03:39:40;;;;;;;36.83;20.10;;;;;;;8.30;84.27;101340.72;4953619;29;20106;-82
2023/04/29 03:42:06;;;;;;;39.00;21.05;;;;;;;8.27;83.93;101341.09;4951808;29;20135;-81
2023/04/29 03:44:31;;;;;;;;;;;;;;;8.27;83.60;101338.41;4951889;29;20086;-82
2023/04/29 03:46:56;;;;;;;35.93;20.23;;;;;;;8.26;83.76;101341.25;4953116;29;19922;-81
2023/04/29 03:49:22;;;;;;;36.63;20.67;;;;;;;8.25;83.21;101344.94;4954018;29;20132;-81
2023/04/29 03:51:47;;;;;;;;;;;;;;;8.25;83.13;101350.28;4951461;29;20074;-83
2023/04/29 03:54:13;;;;;;;36.33;19.10;;;;;;;8.25;82.62;101351.16;4954322;29;19926;-83
2023/04/29 03:56:38;;;;;;;37.90;21.20;;;;;;;8.20;83.77;101358.84;4952279;29;20036;-81
2023/04/29 03:59:03;;;;;;;;;;;;;;;8.22;83.07;101356.00;4951503;29;20431;-82
2023/04/29 04:01:29;;;;;;;34.27;19.23;;;;;;;8.22;83.70;101356.84;4949817;29;19929;-82
2023/04/29 04:03:55;;;;;;;36.83;21.00;;;;;;;8.23;83.77;101363.03;4951927;29;20031;-83
2023/04/29 04:06:20;;;;;;;;;;;;;;;8.19;83.81;101362.53;4949353;29;20045;-83
2023/04/29 04:08:49;;;;;;;35.43;19.40;;;;;;;8.26;82.85;101368.91;4953269;29;20340;-84
2023/04/29 04:11:14;;;;;;;35.95;20.50;;;;;;;8.21;83.23;101370.44;4954636;29;20035;-84
2023/04/29 04:13:42;;;;;;;38.85;20.25;;;;;;;8.26;83.73;101370.75;4951322;29;20854;-83
2023/04/29 04:16:09;;;;;;;36.92;20.35;;;;;;;8.21;83.48;101371.25;4952449;28;20038;-83
2023/04/29 04:18:35;;;;;;;38.35;20.95;;;;;;;8.20;83.66;101374.94;4955283;29;20053;-82
2023/04/29 04:21:07;;;;;;;35.60;21.13;;;;;;;8.15;84.01;101380.81;4955424;29;20387;-82
2023/04/29 04:23:33;;;;;;;32.67;19.48;;;;;;;8.20;84.00;101385.69;4953206;29;20063;-82
2023/04/29 04:25:58;;;;;;;38.45;21.27;;;;;;;8.23;82.98;101390.72;4940330;29;20069;-82
2023/04/29 04:28:24;;;;;;;;;;;;;;;8.21;82.95;101398.09;4955649;29;20019;-82
2023/04/29 04:30:49;;;;;;;37.60;20.10;;;;;;;8.21;83.37;101406.13;4955651;29;19919;-82
2023/04/29 04:33:15;;;;;;;37.63;21.40;;;;;;;8.23;83.18;101404.13;4954412;29;20479;-82
2023/04/29 04:35:41;;;;;;;36.58;21.05;;;;;;;8.21;83.06;101403.44;4952117;29;20039;-81
2023/04/29 04:38:08;;;;;;;35.78;20.05;;;;;;;8.26;83.02;101403.78;4952952;29;20919;-82
2023/04/29 04:40:33;;;;;;;33.75;19.65;;;;;;;8.24;82.81;101411.16;4956989;29;20023;-82
2023/04/29 04:42:59;;;;;;;34.78;20.17;;;;;;;8.21;83.28;101419.53;4954912;29;20035;-82
2023/04/29 04:45:25;;;;;;;34.15;20.10;;;;;;;8.21;83.04;101419.53;5011592;23;20023;-82
2023/04/29 04:47:50;;;;;;;;;;;;;;;8.21;82.86;101418.72;4959111;28;20026;-82
2023/04/29 04:50:15;;;;;;;31.27;18.93;;;;;;;8.21;82.65;101416.84;4970583;28;19918;-82
2023/04/29 04:52:46;;;;;;;34.00;20.42;;;;;;;8.24;82.40;101427.25;4956745;29;20024;-81
2023/04/29 04:55:11;;;;;;;30.92;17.63;;;;;;;8.22;83.45;101431.94;4965289;28;20158;-81
2023/04/29 04:57:37;;;;;;;33.58;19.15;;;;;;;8.20;82.88;101433.94;4976102;28;20479;-81
2023/04/29 05:00:03;;;;;;;33.80;19.77;;;;;;;8.19;82.93;101438.50;4975974;28;20418;-82
2023/04/29 05:02:29;;;;;;;32.17;19.42;;;;;;;8.23;82.90;101433.63;4975597;28;20081;-82
2023/04/29 05:04:54;;;;;;;31.20;19.95;;;;;;;8.21;82.81;101440.19;4975613;28;20035;-82
2023/04/29 05:07:20;;;;;;;;;;;;;;;8.17;83.17;101436.97;4976480;28;20030;-82
2023/04/29 05:09:45;;;;;;;33.53;19.40;;;;;;;8.18;83.42;101441.31;4976139;28;19925;-82
2023/04/29 05:12:11;;;;;;;31.17;19.10;;;;;;;8.22;82.45;101447.19;4975926;28;20573;-84
2023/04/29 05:14:36;;;;;;;31.75;19.05;;;;;;;8.27;82.79;101447.53;4974833;28;20023;-81
2023/04/29 05:17:04;;;;;;;35.17;18.63;;;;;;;8.30;82.85;101455.25;4976067;28;20471;-81
2023/04/29 05:19:30;;;;;;;32.10;19.80;;;;;;;8.32;82.38;101458.59;4975787;28;20390;-82
2023/04/29 05:21:55;;;;;;;30.58;18.48;;;;;;;8.33;82.11;101454.94;4975358;28;20029;-82
2023/04/29 05:24:20;;;;;;;;;;;;;;;8.31;82.49;101457.75;4975470;28;20047;-81
2023/04/29 05:26:46;;;;;;;30.63;18.23;;;;;;;8.31;82.50;101467.66;4975625;28;20385;-81
2023/04/29 05:29:11;;;;;;;31.95;19.75;;;;;;;8.26;82.04;101467.31;4973653;28;20389;-81
2023/04/29 05:32:02;;;;;;;;;;;;;;;8.27;82.85;101466.31;4974299;28;20027;-81
2023/04/29 05:34:28;;;;;;;30.13;18.08;;;;;;;8.30;82.41;101468.66;4964452;28;20013;-81
2023/04/29 05:36:53;;;;;;;32.05;19.27;;;;;;;8.32;82.19;101478.22;4955831;28;20054;-83
2023/04/29 05:39:19;;;;;;;29.23;18.90;;;;;;;8.31;81.88;101471.16;4974385;28;20403;-83
2023/04/29 05:41:44;;;;;;;;;;;;;;;8.28;82.26;101481.41;4976034;28;20105;-81
2023/04/29 05:44:09;;;;;;;31.50;17.13;;;;;;;8.35;82.86;101485.94;4972848;28;20298;-84
2023/04/29 05:46:35;;;;;;;28.40;17.25;;;;;;;8.38;82.77;101487.47;4974759;28;20054;-83
2023/04/29 05:49:00;;;;;;;;;;;;;;;8.35;82.14;101491.28;4972502;28;20031;-83
2023/04/29 05:51:27;;;;;;;30.93;18.10;;;;;;;8.33;81.55;101492.47;4973729;28;19945;-83
2023/04/29 05:53:52;;;;;;;29.15;18.05;;;;;;;8.35;82.35;101501.22;4975204;28;20062;-83
2023/04/29 05:56:18;;;;;;;34.13;18.45;;;;;;;8.42;81.43;101504.06;4974830;28;20042;-83
2023/04/29 05:58:44;;;;;;;30.30;18.15;;;;;;;8.40;81.34;101503.38;4972466;28;20037;-83
2023/04/29 06:01:09;;;;;;;31.55;18.25;;;;;;;8.40;82.17;101508.75;4973520;28;20031;-83
2023/04/29 06:03:35;;;;;;;;;;;;;;;8.39;82.07;101507.06;4974828;28;20064;-83
2023/04/29 06:06:00;;;;;;;28.75;17.25;;;;;;;8.36;81.28;101516.31;4973209;28;19918;-83
2023/04/29 06:08:26;;;;;;;29.58;18.35;;;;;;;8.42;81.58;101520.16;4956173;28;20039;-83
2023/04/29 06:10:51;;;;;;;;;;;;;;;8.43;81.31;101524.53;4941229;28;20047;-84
2023/04/29 06:13:17;;;;;;;28.87;18.80;;;;;;;8.39;81.47;101523.16;4965871;28;20435;-83
2023/04/29 06:15:43;;;;;;;38.70;19.92;;;;;;;8.38;81.20;101526.84;4972659;28;20467;-83
2023/04/29 06:18:13;;;;;;;;;;;;;;;8.44;81.52;101531.56;4974416;28;20035;-87
2023/04/29 06:20:41;;;;;;;29.85;17.67;;;;;;;8.48;82.12;101522.19;4970874;28;20297;-88
2023/04/29 06:23:07;;;;;;;32.65;19.10;;;;;;;8.61;80.95;101532.44;4973090;28;20035;-83
2023/04/29 06:25:33;;;;;;;38.90;20.33;;;;;;;8.65;81.23;101533.78;4973638;28;20039;-85
2023/04/29 06:27:58;;;;;;;;;;;;;;;8.64;80.79;101540.16;4973466;28;20027;-85
2023/04/29 06:30:23;;;;;;;32.03;16.63;;;;;;;8.78;80.34;101535.97;4973174;28;20021;-82
2023/04/29 06:32:49;;;;;;;;;;;;;;;8.77;80.31;101547.72;4973970;28;20328;-84
2023/04/29 06:35:14;;;;;;;33.33;18.33;;;;;;;8.84;80.34;101548.69;4973031;28;19949;-86
2023/04/29 06:37:42;;;;;;;30.42;17.75;;;;;;;8.90;80.26;101555.28;4973706;28;20051;-87
2023/04/29 06:40:11;;;;;;;34.00;18.42;;;;;;;8.95;79.66;101564.50;4973083;28;20023;-85
2023/04/29 06:45:02;;;;;;;31.83;18.00;;;;;;;8.96;79.17;101570.69;4954239;23;20059;-87
2023/04/29 06:47:50;;;;;;;32.50;19.08;;;;;;;8.98;79.54;101578.59;4954930;29;20522;-86
2023/04/29 06:50:15;;;;;;;31.85;19.25;;;;;;;8.93;79.28;101577.25;4953067;29;20479;-85
2023/04/29 06:52:40;;;;;;;31.25;18.70;;;;;;;8.99;79.54;101582.97;4951329;29;20066;-85
2023/04/29 06:55:06;;;;;;;30.33;18.63;;;;;;;9.05;78.94;101576.91;4952743;29;20089;-85
2023/04/29 06:57:32;;;;;;;32.20;18.75;;;;;;;9.10;79.38;101582.59;4951995;29;20368;-87
2023/04/29 07:00:22;;;;;;;31.75;18.55;;;;;;;9.15;79.41;101584.78;4953281;29;20459;-87
2023/04/29 07:09:38;;;;;;;28.10;18.13;;;;;;;9.31;77.90;101600.06;4953582;29;20046;-87
2023/04/29 07:12:04;;;;;;;34.15;18.55;;;;;;;9.36;78.42;101600.38;4932398;29;20035;-87
2023/04/29 07:23:09;;;;;;;26.23;17.05;;;;;;;9.53;77.60;101618.13;5121579;23;20054;-87
2023/04/29 07:25:34;;;;;;;28.15;17.52;;;;;;;9.63;77.61;101630.56;4973245;28;20082;-85
2023/04/29 07:28:00;;;;;;;25.80;16.42;;;;;;;9.64;77.71;101625.00;4953229;28;20035;-85
2023/04/29 07:30:25;;;;;;;28.60;18.17;;;;;;;9.63;77.43;101633.25;4972196;28;20023;-86
2023/04/29 07:32:51;;;;;;;29.98;17.75;;;;;;;9.67;76.55;101632.72;4973283;28;20030;-86
2023/04/29 07:38:30;;;;;;;27.55;17.40;;;;;;;9.89;76.27;101642.91;4939811;28;20415;-86
2023/04/29 07:40:58;;;;;;;27.95;16.60;;;;;;;9.98;76.04;101639.22;4968539;28;20031;-86
2023/04/29 07:46:56;;;;;;;26.77;17.25;;;;;;;10.14;75.19;101660.66;4955475;29;20086;-85
2023/04/29 07:50:17;;;;;;;28.98;17.10;;;;;;;10.20;75.63;101667.19;4953925;28;20110;-86
2023/04/29 07:52:56;;;;;;;23.88;16.30;;;;;;;10.28;74.63;101667.19;4974471;28;20042;-87
2023/04/29 07:55:23;;;;;;;30.45;16.95;;;;;;;10.36;74.80;101671.69;4957219;28;20490;-87
2023/04/29 07:57:57;;;;;;;27.75;17.25;;;;;;;10.42;74.82;101668.28;4976957;28;20033;-85
2023/04/29 08:00:23;;;;;;;24.35;16.10;;;;;;;10.55;74.54;101669.59;4981742;28;20192;-85
2023/04/29 08:02:54;;;;;;;26.70;17.25;;;;;;;10.59;74.38;101670.94;4977704;28;20137;-87
2023/04/29 08:05:20;;;;;;;19.80;13.95;;;;;;;10.68;74.05;101672.56;4974217;28;20413;-85
2023/04/29 08:07:52;;;;;;;25.65;16.02;;;;;;;10.64;73.40;101679.31;4970766;28;20037;-86
2023/04/29 08:10:17;;;;;;;24.65;16.10;;;;;;;10.61;73.22;101679.66;4975828;28;20031;-85
2023/04/29 08:12:46;;;;;;;24.75;16.77;;;;;;;10.73;74.11;101694.41;4973308;28;20023;-85
2023/04/29 08:15:11;;;;;;;25.48;16.40;;;;;;;10.81;74.44;101689.97;4975753;28;20038;-85
2023/04/29 08:17:39;;;;;;;21.52;14.63;;;;;;;10.90;72.78;101689.75;4974797;28;20446;-86
2023/04/29 08:20:06;;;;;;;24.27;16.05;;;;;;;10.89;73.30;101701.53;4962187;29;20027;-85
2023/04/29 08:22:32;;;;;;;24.27;15.05;;;;;;;10.91;72.34;101701.38;4971236;28;20073;-85
2023/04/29 08:25:02;;;;;;;20.42;13.25;;;;;;;10.98;71.72;101696.94;4976594;28;20494;-85
2023/04/29 08:27:27;;;;;;;21.15;14.23;;;;;;;11.09;72.56;101702.94;4974912;28;20114;-84
2023/04/29 08:29:52;;;;;;;23.23;14.25;;;;;;;11.11;71.45;101690.94;4988156;28;20023;-84
2023/04/29 08:32:20;;;;;;;22.05;14.27;;;;;;;11.27;70.55;101700.78;4982134;28;20015;-85
2023/04/29 08:34:46;;;;;;;22.13;14.02;;;;;;;11.45;69.29;101694.22;4974574;28;20110;-85
2023/04/29 08:37:12;;;;;;;20.42;13.82;;;;;;;11.58;70.09;101709.78;4976261;28;20449;-85
2023/04/29 08:39:58;;;;;;;22.23;13.20;;;;;;;11.86;68.72;101704.63;4957986;28;20043;-86
2023/04/29 08:42:33;;;;;;;20.92;12.98;;;;;;;12.12;66.99;101714.16;4990006;23;20329;-85
2023/04/29 08:45:00;;;;;;;20.70;13.10;;;;;;;12.11;66.54;101718.72;4952000;28;20438;-83
2023/04/29 08:47:30;;;;;;;20.60;12.48;;;;;;;12.50;66.19;101718.59;4956107;28;20046;-84
2023/04/29 08:50:01;;;;;;;18.70;13.27;;;;;;;12.80;65.04;101730.19;4956868;28;20035;-84
2023/04/29 08:56:27;;;;;;;22.75;13.07;;;;;;;13.21;64.30;101736.84;4956620;28;20045;-84
2023/04/29 08:59:08;;;;;;;21.33;13.00;;;;;;;13.62;64.41;101735.38;4959707;28;20118;-84
2023/04/29 09:01:34;;;;;;;20.40;12.65;;;;;;;13.74;61.85;101733.84;4954536;29;20023;-84
2023/04/29 09:06:36;;;;;;;19.63;12.88;;;;;;;13.73;60.44;101724.03;5412575;23;20052;-85
2023/04/29 09:09:02;;;;;;;17.05;12.18;;;;;;;14.16;60.29;101739.31;5299188;23;20005;-84
2023/04/29 09:11:46;;;;;;;19.35;12.52;;;;;;;14.34;59.58;101738.78;4956333;28;20386;-85
2023/04/29 09:14:28;;;;;;;19.15;12.38;;;;;;;14.24;58.08;101735.63;4975136;28;20386;-85
2023/04/29 09:17:43;;;;;;;18.05;12.43;;;;;;;14.32;59.72;101748.97;4956823;28;20022;-84
2023/04/29 09:21:04;;;;;;;17.63;12.88;;;;;;;14.67;59.83;101751.66;4975369;28;20106;-84
2023/04/29 09:23:36;;;;;;;20.08;12.55;;;;;;;14.60;59.28;101745.38;4959185;28;20478;-84
2023/04/29 09:26:02;;;;;;;17.10;12.52;;;;;;;14.67;60.48;101753.53;4974960;28;20058;-84
2023/04/29 09:28:28;;;;;;;17.83;12.27;;;;;;;14.73;59.90;101752.75;4974581;28;20022;-84
2023/04/29 09:31:29;;;;;;;19.13;12.45;;;;;;;15.17;57.77;101753.31;5110789;23;20066;-85
2023/04/29 09:33:58;;;;;;;17.10;11.18;;;;;;;15.11;58.16;101759.53;4954938;29;20066;-85
2023/04/29 09:37:00;;;;;;;17.75;12.25;;;;;;;15.34;57.03;101750.22;4954792;29;20034;-84
2023/04/29 09:39:38;;;;;;;15.85;11.23;;;;;;;15.64;55.06;101757.94;4954526;29;20098;-84
2023/04/29 09:42:04;;;;;;;15.93;10.68;;;;;;;15.90;56.53;101755.22;4955066;29;20118;-84
2023/04/29 09:45:13;;;;;;;17.35;11.35;;;;;;;15.64;55.51;101757.94;4954867;29;20115;-84
2023/04/29 09:47:44;;;;;;;17.25;12.18;;;;;;;16.00;55.05;101762.94;4955210;29;20031;-84
2023/04/29 09:50:12;;;;;;;17.95;12.60;;;;;;;16.71;53.07;101755.03;4921676;29;20067;-84
2023/04/29 09:56:10;;;;;;;17.10;11.32;;;;;;;16.73;53.99;101766.53;4910317;28;20090;-83
2023/04/29 09:59:12;;;;;;;16.48;12.57;;;;;;;16.59;52.53;101779.34;4953700;29;20035;-84
2023/04/29 10:01:57;;;;;;;17.58;11.75;;;;;;;16.36;51.92;101771.69;4954512;29;20038;-85
2023/04/29 10:04:34;;;;;;;15.57;12.02;;;;;;;15.57;54.89;101764.19;4955318;29;20050;-86
2023/04/29 10:07:05;;;;;;;16.67;11.20;;;;;;;16.04;53.80;101768.81;4955435;29;20027;-85
2023/04/29 10:10:24;;;;;;;15.02;12.18;;;;;;;15.92;53.99;101776.75;4955732;29;20030;-87
2023/04/29 10:12:59;;;;;;;16.17;10.75;;;;;;;16.11;53.72;101772.34;4954288;29;20078;-87
2023/04/29 10:18:39;;;;;;;17.08;10.63;;;;;;;17.87;49.83;101779.41;4953370;29;20554;-87
2023/04/29 10:21:06;;;;;;;12.38;10.35;;;;;;;19.51;47.59;101778.94;4938387;29;20375;-87
2023/04/29 10:26:16;;;;;;;14.52;10.65;;;;;;;20.42;43.56;101771.47;5124174;23;20348;-87
2023/04/29 10:38:59;;;;;;;15.48;10.35;;;;;;;18.41;48.13;101775.34;4973474;28;20042;-84
2023/04/29 10:41:37;;;;;;;12.27;9.85;;;;;;;19.68;46.41;101767.31;4951873;29;20062;-85
2023/04/29 10:44:03;;;;;;;11.77;9.18;;;;;;;20.71;42.13;101766.88;4952975;28;20509;-87
2023/04/29 10:46:28;;;;;;;12.52;8.57;;;;;;;20.85;40.73;101772.94;4974157;28;20030;-85
2023/04/29 10:49:02;;;;;;;13.80;10.30;;;;;;;20.17;42.14;101771.75;4955999;28;20087;-84
2023/04/29 10:54:33;;;;;;;10.85;8.93;;;;;;;17.92;44.92;101772.44;5168119;23;20422;-86
2023/04/29 10:56:59;;;;;;;13.60;9.80;;;;;;;17.34;46.74;101777.94;4972997;28;20037;-86
2023/04/29 10:59:36;;;;;;;11.38;8.70;;;;;;;17.21;47.56;101775.31;4956488;28;20035;-85
2023/04/29 11:02:33;;;;;;;12.57;8.90;;;;;;;16.74;48.39;101768.19;4971475;28;20169;-86
2023/04/29 11:05:11;;;;;;;13.70;8.95;;;;;;;17.17;49.81;101776.78;5114697;23;20050;-86
2023/04/29 11:10:08;;;;;;;11.88;8.63;;;;;;;17.99;46.14;101785.00;5190801;23;20119;-86
2023/04/29 11:13:34;;;;;;;11.45;7.90;;;;;;;17.34;46.52;101782.56;4935047;29;20034;-87
2023/04/29 11:16:31;;;;;;;10.55;7.38;;;;;;;17.55;46.20;101800.41;4847792;29;20061;-85
2023/04/29 11:19:19;;;;;;;10.00;8.25;;;;;;;18.73;46.38;101784.19;4841598;29;20046;-87
2023/04/29 11:22:11;;;;;;;11.35;7.70;;;;;;;19.11;43.70;101790.44;4841241;29;20105;-86
2023/04/29 11:25:20;;;;;;;11.25;8.20;;;;;;;18.96;43.55;101779.97;4840552;29;20079;-87
2023/04/29 11:27:47;;;;;;;8.88;7.32;;;;;;;18.80;45.67;101784.13;4900982;29;20487;-88
2023/04/29 11:30:13;;;;;;;8.85;7.38;;;;;;;18.52;43.20;101782.78;4919625;29;20047;-87
2023/04/29 11:33:35;;;;;;;8.25;7.07;;;;;;;18.44;44.43;101791.25;4924395;29;20027;-87
2023/04/29 11:36:05;;;;;;;10.77;7.10;;;;;;;18.43;43.16;101786.84;4933437;29;20507;-87
2023/04/29 11:44:22;;;;;;;8.15;6.60;;;;;;;18.34;44.38;101797.22;5234684;23;20059;-87
2023/04/29 11:46:48;;;;;;;10.98;7.72;;;;;;;18.11;45.24;101790.53;4974026;28;20118;-88
2023/04/29 11:52:11;;;;;;;9.70;7.50;;;;;;;18.73;44.31;101794.25;4951019;29;20696;-87
2023/04/29 11:54:37;;;;;;;10.63;7.85;;;;;;;18.71;44.93;101797.22;4965369;23;20384;-87
2023/04/29 11:57:25;;;;;;;9.07;7.05;;;;;;;18.78;43.53;101798.00;4920673;29;20094;-87
2023/04/29 12:05:57;;;;;;;10.32;7.57;;;;;;;18.08;46.55;101792.88;4900223;28;20828;-88
2023/04/29 12:08:35;;;;;;;8.35;7.30;;;;;;;17.96;45.16;101792.75;4953844;28;20047;-88
2023/04/29 12:11:00;;;;;;;8.68;6.80;;;;;;;17.95;45.07;101789.19;4968612;23;20537;-88
2023/04/29 12:13:30;;;;;;;9.80;7.40;;;;;;;17.82;44.83;101789.31;4950931;28;20133;-88
2023/04/29 12:16:22;;;;;;;7.90;7.07;;;;;;;17.85;46.09;101788.84;4962319;23;20406;-88
2023/04/29 12:18:53;;;;;;;9.57;7.00;;;;;;;18.17;45.66;101791.53;4977984;23;20054;-88
2023/04/29 12:21:19;;;;;;;7.80;6.78;;;;;;;18.27;44.60;101801.91;4948136;29;20114;-88
2023/04/29 12:23:53;;;;;;;10.75;6.63;;;;;;;18.12;45.29;101794.09;4935475;29;20031;-88
2023/04/29 12:26:19;;;;;;;7.30;6.55;;;;;;;18.51;45.26;101802.94;4953072;29;20031;-89
2023/04/29 12:29:03;;;;;;;7.60;6.47;;;;;;;19.20;43.86;101808.19;4959074;29;20071;-88
2023/04/29 12:31:33;;;;;;;9.80;6.88;;;;;;;19.58;42.85;101797.13;4952594;29;20071;-89
2023/04/29 12:33:59;;;;;;;9.50;7.40;;;;;;;19.60;42.10;101805.88;4963766;28;20074;-88
2023/04/29 12:36:24;;;;;;;9.38;7.60;;;;;;;19.48;41.45;101798.50;4975598;28;20514;-88
2023/04/29 12:39:17;;;;;;;8.48;7.57;;;;;;;18.89;42.46;101801.81;4987407;28;20027;-88
2023/04/29 12:42:19;;;;;;;12.07;7.43;;;;;;;19.50;42.21;101801.03;4987071;28;20160;-88
2023/04/29 12:45:05;;;;;;;8.23;6.93;;;;;;;19.66;42.13;101804.97;4975569;28;20034;-88
2023/04/29 12:48:01;;;;;;;10.18;7.38;;;;;;;18.77;43.73;101800.94;4975423;28;20098;-88
2023/04/29 12:51:04;;;;;;;9.50;6.57;;;;;;;18.80;43.35;101803.22;4975129;28;20093;-88
2023/04/29 12:54:02;;;;;;;8.25;6.18;;;;;;;18.64;42.52;101804.66;4974213;28;20073;-88
2023/04/29 13:00:00;;;;;;;7.65;6.60;;;;;;;18.36;42.65;101794.25;4981185;28;20061;-90
2023/04/29 13:02:31;;;;;;;11.02;6.45;;;;;;;18.61;42.81;101797.75;4973851;28;20337;-87
2023/04/29 13:16:58;;;;;;;8.52;6.13;;;;;;;18.61;42.74;101783.31;5009582;23;20051;-86